Time;durP1;ratioP1;P1;durP2;ratioP2;P2;SDS_P1;SDS_P2;PMS_P1;PMS_P2;Temp;Humidity;BMP_temperature;BMP_pressure;BME280_temperature;BME280_humidity;BME280_pressure;Samples;Min_cycle;Max_cycle;Signal;HPM_P1;HPM_P2
2021/05/16 00:01:30;;;;;;;4.20;1.90;;;10.40;1.00;;;;;;4978170;28;20417;-75
2021/05/16 00:03:57;;;;;;;5.43;2.13;;;10.40;1.00;;;;;;4982808;28;20452;-74
2021/05/16 00:06:22;;;;;;;4.33;2.10;;;10.40;1.00;;;;;;4991409;28;20500;-74
2021/05/16 00:08:48;;;;;;;9.97;2.90;;;10.50;1.00;;;;;;4975199;28;20438;-75
2021/05/16 00:11:14;;;;;;;3.93;2.20;;;10.80;1.00;;;;;;4985505;28;20169;-74
2021/05/16 00:13:40;;;;;;;5.97;2.27;;;;;;;;;;4993894;28;20158;-74
2021/05/16 00:16:06;;;;;;;7.93;2.40;;;10.60;1.00;;;;;;4994146;28;20429;-74
2021/05/16 00:18:32;;;;;;;16.17;2.00;;;10.50;1.00;;;;;;4994196;28;21022;-74
2021/05/16 00:21:01;;;;;;;3.27;2.07;;;10.50;1.00;;;;;;4996309;28;20428;-74
2021/05/16 00:23:27;;;;;;;3.10;1.70;;;10.50;1.00;;;;;;4998075;28;20408;-75
2021/05/16 00:26:00;;;;;;;6.13;2.80;;;10.40;1.00;;;;;;4997723;28;20426;-74
2021/05/16 00:28:31;;;;;;;9.03;2.33;;;10.30;1.00;;;;;;4996892;28;20176;-75
2021/05/16 00:30:58;;;;;;;3.70;2.43;;;;;;;;;;4997737;28;20440;-74
2021/05/16 00:33:24;;;;;;;5.40;1.80;;;10.30;1.00;;;;;;4997686;28;20421;-75
2021/05/16 00:36:00;;;;;;;3.60;2.37;;;10.00;1.00;;;;;;4997318;28;20475;-75
2021/05/16 00:38:26;;;;;;;2.20;1.93;;;10.10;1.00;;;;;;5013274;28;20416;-75
2021/05/16 00:40:52;;;;;;;4.90;1.87;;;10.10;1.00;;;;;;4997947;28;20447;-75
2021/05/16 00:43:18;;;;;;;6.20;2.60;;;10.20;1.00;;;;;;4997635;28;20487;-75
2021/05/16 00:45:47;;;;;;;3.73;2.10;;;;;;;;;;4997115;28;20742;-74
2021/05/16 00:48:13;;;;;;;4.50;1.80;;;10.30;1.00;;;;;;4997608;28;20435;-74
2021/05/16 00:50:47;;;;;;;8.53;2.30;;;10.30;1.00;;;;;;4997492;28;20774;-74
2021/05/16 00:53:13;;;;;;;10.70;2.43;;;10.20;1.00;;;;;;4996312;28;20425;-74
2021/05/16 00:55:39;;;;;;;7.10;2.60;;;;;;;;;;4997175;28;20470;-74
2021/05/16 00:58:06;;;;;;;6.60;2.97;;;10.40;1.00;;;;;;4995516;28;20467;-75
2021/05/16 01:00:42;;;;;;;10.20;2.83;;;10.30;1.00;;;;;;4988171;28;20932;-75
2021/05/16 01:03:13;;;;;;;4.83;2.60;;;10.30;1.00;;;;;;4985596;28;20540;-75
2021/05/16 01:05:43;;;;;;;3.00;2.23;;;10.30;1.00;;;;;;4992848;28;21125;-74
2021/05/16 01:08:13;;;;;;;12.17;2.90;;;10.30;1.00;;;;;;4994822;28;20425;-74
2021/05/16 01:10:41;;;;;;;7.30;3.00;;;10.50;1.00;;;;;;4997429;28;20769;-75
2021/05/16 01:13:39;;;;;;;5.23;2.60;;;10.40;1.00;;;;;;4997029;28;20428;-75
2021/05/16 01:16:05;;;;;;;6.07;2.50;;;;;;;;;;4997265;28;20405;-74
2021/05/16 01:18:37;;;;;;;4.23;2.90;;;;;;;;;;4997141;28;20463;-75
2021/05/16 01:21:08;;;;;;;4.43;2.77;;;;;;;;;;4995292;28;20428;-75
2021/05/16 01:23:47;;;;;;;5.97;2.37;;;;;;;;;;4996605;28;20417;-74
2021/05/16 01:26:14;;;;;;;14.73;3.20;;;10.50;1.00;;;;;;4997360;28;20393;-75
2021/05/16 01:28:44;;;;;;;8.10;2.70;;;10.40;1.00;;;;;;4996959;28;20436;-75
2021/05/16 01:31:13;;;;;;;5.13;2.50;;;;;;;;;;4996053;28;20437;-74
2021/05/16 01:33:39;;;;;;;6.77;2.70;;;10.40;1.00;;;;;;4996982;28;20459;-75
2021/05/16 01:36:07;;;;;;;5.17;2.67;;;;;;;;;;4996784;28;20861;-75
2021/05/16 01:38:37;;;;;;;6.17;2.60;;;;;;;;;;4996301;28;20456;-75
2021/05/16 01:41:03;;;;;;;4.20;2.23;;;;;;;;;;4996031;28;20492;-76
2021/05/16 01:43:37;;;;;;;4.57;2.27;;;10.20;1.00;;;;;;4996246;28;20413;-76
2021/05/16 01:46:19;;;;;;;4.17;2.30;;;;;;;;;;4996745;28;20404;-76
2021/05/16 01:48:55;;;;;;;7.37;2.33;;;;;;;;;;4996187;28;20782;-76
2021/05/16 01:51:31;;;;;;;7.33;2.90;;;;;;;;;;4995844;28;20922;-76
2021/05/16 01:54:30;;;;;;;4.17;2.40;;;10.30;1.00;;;;;;4994622;28;20409;-76
2021/05/16 01:56:56;;;;;;;3.60;2.17;;;10.50;1.00;;;;;;4977329;28;20489;-76
2021/05/16 01:59:25;;;;;;;3.23;2.30;;;;;;;;;;4984693;28;20509;-76
2021/05/16 02:01:51;;;;;;;7.50;2.70;;;10.60;1.00;;;;;;4994253;28;20413;-76
2021/05/16 02:04:27;;;;;;;3.27;2.40;;;10.20;1.00;;;;;;4988960;28;20421;-76
2021/05/16 02:06:54;;;;;;;6.47;2.40;;;10.40;1.00;;;;;;4996018;28;20424;-76
2021/05/16 02:09:26;;;;;;;7.20;2.73;;;10.40;1.00;;;;;;4995785;28;20440;-76
2021/05/16 02:11:55;;;;;;;5.50;2.70;;;10.40;1.00;;;;;;4995000;28;20421;-76
2021/05/16 02:14:37;;;;;;;3.67;2.27;;;10.50;1.00;;;;;;4996153;28;20515;-77
2021/05/16 02:17:07;;;;;;;8.73;2.90;;;;;;;;;;4995692;28;20401;-76
2021/05/16 02:19:32;;;;;;;6.63;2.20;;;10.40;1.00;;;;;;4995571;28;20975;-76
2021/05/16 02:22:07;;;;;;;4.30;2.20;;;10.50;1.00;;;;;;4995701;28;20459;-76
2021/05/16 02:24:36;;;;;;;2.57;1.40;;;10.40;1.00;;;;;;4995399;28;20526;-76
2021/05/16 02:27:06;;;;;;;5.93;2.70;;;10.40;1.00;;;;;;4995923;28;20435;-74
2021/05/16 02:29:37;;;;;;;11.43;3.03;;;10.40;1.00;;;;;;4995187;28;20452;-74
2021/05/16 02:32:07;;;;;;;6.67;2.37;;;10.10;1.00;;;;;;4995983;28;20396;-75
2021/05/16 02:35:00;;;;;;;3.47;2.20;;;10.50;1.00;;;;;;5010873;28;20470;-74
2021/05/16 02:37:26;;;;;;;7.50;2.10;;;;;;;;;;4995596;28;20754;-74
2021/05/16 02:39:52;;;;;;;7.23;2.70;;;10.00;1.00;;;;;;4995176;28;20444;-74
2021/05/16 02:42:18;;;;;;;7.13;2.50;;;10.20;1.00;;;;;;4995358;28;20405;-76
2021/05/16 02:44:49;;;;;;;4.77;2.20;;;;;;;;;;4994993;28;20162;-76
2021/05/16 02:47:19;;;;;;;6.13;2.90;;;;;;;;;;4993264;28;20430;-76
2021/05/16 02:49:49;;;;;;;7.83;2.70;;;10.50;1.00;;;;;;4990960;28;20955;-76
2021/05/16 02:52:25;;;;;;;3.43;2.20;;;;;;;;;;4985099;28;20461;-76
2021/05/16 02:55:07;;;;;;;5.87;1.77;;;;;;;;;;4985038;28;20500;-76
2021/05/16 02:57:33;;;;;;;5.10;1.87;;;10.30;1.00;;;;;;4994984;28;20842;-75
2021/05/16 02:59:59;;;;;;;4.60;2.10;;;;;;;;;;4995002;28;20463;-75
2021/05/16 03:02:25;;;;;;;2.80;1.90;;;;;;;;;;4995293;28;20173;-75
2021/05/16 03:05:01;;;;;;;4.00;1.53;;;;;;;;;;4995291;28;20473;-74
2021/05/16 03:07:43;;;;;;;3.20;2.03;;;;;;;;;;4995194;28;20735;-74
2021/05/16 03:10:13;;;;;;;6.13;2.20;;;;;;;;;;4995181;28;20990;-74
2021/05/16 03:12:43;;;;;;;4.70;2.43;;;;;;;;;;4995434;28;20397;-74
2021/05/16 03:15:13;;;;;;;6.70;2.40;;;;;;;;;;4994586;28;20903;-74
2021/05/16 03:17:43;;;;;;;6.90;1.87;;;;;;;;;;4994642;28;20424;-74
2021/05/16 03:20:13;;;;;;;4.60;2.30;;;;;;;;;;4994913;28;20511;-75
2021/05/16 03:22:40;;;;;;;4.03;2.30;;;;;;;;;;4994471;28;20448;-75
2021/05/16 03:25:09;;;;;;;3.60;2.20;;;10.40;1.00;;;;;;4994730;28;20385;-74
2021/05/16 03:27:35;;;;;;;2.50;1.90;;;10.40;1.00;;;;;;4994533;28;20508;-76
2021/05/16 03:30:01;;;;;;;5.87;2.47;;;;;;;;;;4994503;28;20543;-76
2021/05/16 03:32:27;;;;;;;4.73;2.03;;;10.40;1.00;;;;;;4993164;28;20840;-76
2021/05/16 03:34:53;;;;;;;5.07;1.90;;;;;;;;;;4994205;28;20503;-76
2021/05/16 03:37:25;;;;;;;6.93;2.03;;;;;;;;;;4994238;28;20386;-77
2021/05/16 03:40:13;;;;;;;4.00;2.10;;;10.50;1.00;;;;;;4994333;28;20841;-76
2021/05/16 03:42:49;;;;;;;6.10;1.93;;;10.40;1.00;;;;;;4994439;28;20417;-76
2021/05/16 03:45:19;;;;;;;9.83;2.27;;;;;;;;;;4994159;28;20428;-76
2021/05/16 03:47:45;;;;;;;10.23;2.40;;;;;;;;;;4983859;28;20484;-76
2021/05/16 03:50:11;;;;;;;5.50;1.97;;;10.40;1.00;;;;;;4983881;28;21017;-76
2021/05/16 03:52:39;;;;;;;7.80;2.57;;;10.40;1.00;;;;;;4980908;28;20488;-76
2021/05/16 03:55:07;;;;;;;6.27;2.37;;;10.60;1.00;;;;;;4976589;28;20464;-76
2021/05/16 03:57:33;;;;;;;8.13;2.33;;;10.50;1.00;;;;;;4985180;28;20432;-75
2021/05/16 03:59:59;;;;;;;5.23;2.00;;;;;;;;;;4997402;28;20483;-75
2021/05/16 04:02:25;;;;;;;6.07;2.57;;;;;;;;;;4997510;28;20162;-75
2021/05/16 04:04:51;;;;;;;6.80;2.10;;;10.50;1.00;;;;;;4996950;28;20420;-74
2021/05/16 04:07:17;;;;;;;10.73;2.07;;;10.50;1.00;;;;;;4997353;28;20406;-75
2021/05/16 04:09:43;;;;;;;7.43;2.13;;;;;;;;;;4997319;28;20445;-75
2021/05/16 04:12:36;;;;;;;6.00;2.37;;;10.50;1.00;;;;;;4997750;28;20417;-76
2021/05/16 04:15:07;;;;;;;5.43;2.50;;;10.40;1.00;;;;;;4998434;28;20420;-76
2021/05/16 04:17:33;;;;;;;2.23;2.00;;;10.80;1.00;;;;;;4996392;28;20447;-76
2021/05/16 04:20:00;;;;;;;6.00;1.60;;;10.60;1.00;;;;;;4997918;28;20436;-76
2021/05/16 04:22:26;;;;;;;6.73;1.80;;;10.70;1.00;;;;;;5012777;28;20429;-77
2021/05/16 04:24:55;;;;;;;2.53;1.70;;;10.80;1.00;;;;;;4997512;28;20484;-76
2021/05/16 04:27:20;;;;;;;3.37;1.90;;;11.00;1.00;;;;;;4997509;28;20542;-75
2021/05/16 04:29:47;;;;;;;3.53;2.03;;;;;;;;;;4997516;28;20444;-74
2021/05/16 04:32:12;;;;;;;13.30;2.37;;;10.80;1.00;;;;;;4997053;28;20427;-74
2021/05/16 04:34:38;;;;;;;5.50;2.07;;;;;;;;;;4997556;28;20400;-74
2021/05/16 04:37:04;;;;;;;1.80;1.50;;;10.90;1.00;;;;;;4997270;28;20166;-74
2021/05/16 04:39:30;;;;;;;2.57;2.00;;;;;;;;;;4997757;28;20393;-75
2021/05/16 04:42:12;;;;;;;2.80;2.13;;;11.00;1.00;;;;;;4997524;28;20926;-80
2021/05/16 04:44:48;;;;;;;2.33;1.83;;;11.20;1.00;;;;;;4997558;28;20504;-80
2021/05/16 04:47:18;;;;;;;7.70;1.97;;;11.30;1.00;;;;;;5010671;28;20420;-80
2021/05/16 04:49:55;;;;;;;4.70;2.23;;;;;;;;;;5007923;28;20467;-81
2021/05/16 04:52:24;;;;;;;22.93;2.10;;;11.40;1.00;;;;;;4996868;28;20436;-81
2021/05/16 04:54:51;;;;;;;6.53;2.20;;;;;;;;;;4995988;28;20821;-81
2021/05/16 04:57:19;;;;;;;2.40;1.73;;;;;;;;;;4994967;28;20456;-73
2021/05/16 04:59:55;;;;;;;3.73;1.97;;;;;;;;;;4997373;28;20398;-73
2021/05/16 05:02:25;;;;;;;3.30;1.63;;;11.60;1.00;;;;;;4997439;28;20419;-74
2021/05/16 05:04:51;;;;;;;2.27;1.43;;;11.60;1.00;;;;;;4997363;28;20409;-74
2021/05/16 05:07:17;;;;;;;1.77;1.30;;;11.50;1.00;;;;;;4996545;28;20403;-74
2021/05/16 05:09:44;;;;;;;2.97;1.60;;;;;;;;;;4997345;28;20523;-74
2021/05/16 05:12:10;;;;;;;4.33;1.80;;;;;;;;;;4997400;28;20421;-74
2021/05/16 05:14:43;;;;;;;6.00;1.70;;;;;;;;;;5011671;28;20424;-74
2021/05/16 05:17:09;;;;;;;5.40;2.00;;;;;;;;;;4997217;28;20456;-74
2021/05/16 05:19:36;;;;;;;5.30;1.63;;;11.60;1.00;;;;;;4995827;28;21011;-74
2021/05/16 05:22:02;;;;;;;6.03;2.23;;;;;;;;;;4996736;28;20401;-74
2021/05/16 05:24:31;;;;;;;4.17;2.10;;;12.00;1.00;;;;;;4995508;28;20868;-74
2021/05/16 05:27:04;;;;;;;2.50;2.00;;;12.00;1.00;;;;;;4996501;28;20927;-74
2021/05/16 05:29:42;;;;;;;3.90;1.97;;;12.10;1.00;;;;;;4996809;28;20452;-75
2021/05/16 05:32:10;;;;;;;3.57;1.90;;;12.20;1.00;;;;;;4996308;28;20401;-73
2021/05/16 05:34:36;;;;;;;3.80;2.17;;;12.00;1.00;;;;;;4996211;28;20408;-73
2021/05/16 05:37:02;;;;;;;9.00;2.33;;;12.30;1.00;;;;;;4996181;28;20406;-73
2021/05/16 05:39:29;;;;;;;6.10;1.67;;;12.80;1.00;;;;;;4995874;28;20173;-74
2021/05/16 05:41:56;;;;;;;9.40;2.03;;;12.80;1.00;;;;;;4996032;28;20471;-75
2021/05/16 05:44:31;;;;;;;5.13;2.30;;;12.40;1.00;;;;;;4995518;28;20409;-75
2021/05/16 05:47:18;;;;;;;12.10;3.03;;;12.40;1.00;;;;;;4996225;28;20408;-75
2021/05/16 05:49:44;;;;;;;4.30;2.50;;;12.50;1.00;;;;;;4984964;28;20458;-75
2021/05/16 05:52:10;;;;;;;8.10;2.30;;;;;;;;;;4988584;28;20421;-74
2021/05/16 05:54:37;;;;;;;9.43;2.40;;;12.50;1.00;;;;;;4994821;28;20986;-75
2021/05/16 05:57:13;;;;;;;8.03;2.90;;;12.90;1.00;;;;;;4983131;28;20896;-75
2021/05/16 06:00:06;;;;;;;4.73;3.03;;;12.40;1.00;;;;;;4985571;28;20911;-75
2021/05/16 06:02:49;;;;;;;3.67;2.70;;;12.70;1.00;;;;;;4996376;28;20405;-74
2021/05/16 06:05:15;;;;;;;4.70;2.87;;;12.90;1.00;;;;;;5010924;28;21078;-75
2021/05/16 06:07:41;;;;;;;19.90;3.90;;;12.90;1.00;;;;;;4995691;28;20467;-74
2021/05/16 06:10:07;;;;;;;2.80;2.53;;;;;;;;;;4995831;28;20201;-75
2021/05/16 06:12:36;;;;;;;6.20;3.63;;;13.10;1.00;;;;;;4996492;28;20393;-74
2021/05/16 06:15:07;;;;;;;8.40;3.20;;;13.20;1.00;;;;;;4996050;28;20914;-75
2021/05/16 06:17:37;;;;;;;12.80;3.40;;;13.20;1.00;;;;;;4995284;28;20412;-75
2021/05/16 06:20:07;;;;;;;8.23;3.50;;;13.10;1.00;;;;;;4995147;28;20453;-75
2021/05/16 06:22:43;;;;;;;4.80;3.47;;;13.30;1.00;;;;;;4995308;28;20417;-75
2021/05/16 06:25:09;;;;;;;5.70;3.57;;;13.20;1.00;;;;;;5011070;28;20760;-75
2021/05/16 06:27:37;;;;;;;10.17;3.70;;;13.40;1.00;;;;;;4995823;28;20962;-74
2021/05/16 06:30:05;;;;;;;5.10;3.70;;;13.20;1.00;;;;;;4994992;28;20811;-74
2021/05/16 06:32:49;;;;;;;10.40;4.77;;;;;;;;;;5010405;28;20460;-74
2021/05/16 06:35:24;;;;;;;7.37;4.20;;;13.10;1.00;;;;;;5010813;28;20868;-75
2021/05/16 06:37:50;;;;;;;13.43;4.17;;;13.10;1.00;;;;;;4995706;28;20405;-75
2021/05/16 06:40:37;;;;;;;10.00;4.40;;;13.10;1.00;;;;;;4995196;28;20908;-75
2021/05/16 06:43:06;;;;;;;11.83;4.53;;;13.00;1.00;;;;;;4995906;28;20198;-74
2021/05/16 06:45:33;;;;;;;7.23;4.30;;;13.00;1.00;;;;;;4995598;28;20555;-74
2021/05/16 06:47:58;;;;;;;10.30;4.53;;;12.90;1.00;;;;;;4988617;28;20446;-74
2021/05/16 06:50:36;;;;;;;7.43;4.70;;;12.80;1.00;;;;;;4985125;28;20468;-74
2021/05/16 06:53:13;;;;;;;4.40;3.80;;;;;;;;;;4981164;28;21046;-74
2021/05/16 06:55:42;;;;;;;7.10;3.60;;;12.70;1.00;;;;;;4993766;28;20430;-74
2021/05/16 06:58:08;;;;;;;7.00;4.13;;;12.90;1.00;;;;;;4995689;28;20389;-74
2021/05/16 07:00:34;;;;;;;7.97;3.83;;;;;;;;;;4995187;28;20407;-74
2021/05/16 07:03:00;;;;;;;7.57;3.80;;;;;;;;;;4994671;28;20177;-73
2021/05/16 07:05:31;;;;;;;5.70;3.70;;;13.00;1.00;;;;;;4994917;28;20736;-73
2021/05/16 07:08:00;;;;;;;4.43;3.63;;;13.00;1.00;;;;;;4995099;28;20790;-74
2021/05/16 07:10:26;;;;;;;7.70;3.40;;;12.80;1.00;;;;;;4995039;28;20444;-74
2021/05/16 07:12:52;;;;;;;9.70;3.37;;;;;;;;;;4994476;28;20413;-74
2021/05/16 07:15:19;;;;;;;4.37;3.10;;;12.70;1.00;;;;;;4985695;28;20472;-75
2021/05/16 07:17:49;;;;;;;9.97;3.00;;;;;;;;;;4993870;28;20464;-74
2021/05/16 07:20:31;;;;;;;6.43;3.57;;;;;;;;;;4994863;28;20436;-75
2021/05/16 07:22:57;;;;;;;6.50;3.70;;;13.30;1.00;;;;;;4994195;28;20428;-75
2021/05/16 07:25:23;;;;;;;4.90;3.40;;;13.60;1.00;;;;;;4994735;28;20500;-82
2021/05/16 07:27:49;;;;;;;6.60;3.10;;;13.70;1.00;;;;;;5009725;28;20413;-82
2021/05/16 07:30:15;;;;;;;6.90;3.20;;;;;;;;;;4994410;28;20455;-80
2021/05/16 07:33:07;;;;;;;5.63;3.60;;;14.30;1.00;;;;;;4994100;28;20289;-79
2021/05/16 07:35:32;;;;;;;6.97;3.20;;;14.40;1.00;;;;;;4994465;28;20451;-79
2021/05/16 07:37:58;;;;;;;5.27;3.40;;;14.40;1.00;;;;;;4994248;28;20413;-80
2021/05/16 07:40:24;;;;;;;8.93;3.60;;;14.40;1.00;;;;;;4993840;28;20158;-80
2021/05/16 07:42:50;;;;;;;14.10;3.97;;;;;;;;;;4992294;28;20205;-80
2021/05/16 07:45:18;;;;;;;6.23;3.10;;;14.10;1.00;;;;;;4994118;28;20397;-81
2021/05/16 07:47:44;;;;;;;3.17;2.73;;;;;;;;;;4993850;28;20411;-81
2021/05/16 07:50:25;;;;;;;2.60;2.40;;;;;;;;;;4994289;28;20471;-82
2021/05/16 07:52:51;;;;;;;5.10;2.73;;;13.80;1.00;;;;;;4994430;28;20405;-74
2021/05/16 07:55:17;;;;;;;5.43;2.73;;;;;;;;;;4994066;28;20798;-75
2021/05/16 07:57:54;;;;;;;2.20;1.80;;;13.90;1.00;;;;;;4992699;28;20525;-76
2021/05/16 08:00:43;;;;;;;8.10;2.30;;;14.30;1.00;;;;;;4994583;28;20744;-75
2021/05/16 08:03:08;;;;;;;6.53;2.47;;;14.60;1.00;;;;;;4993972;28;20428;-75
2021/05/16 08:05:37;;;;;;;2.90;2.10;;;;;;;;;;4994783;28;20408;-76
2021/05/16 08:08:07;;;;;;;3.70;2.20;;;14.90;1.00;;;;;;5009167;28;20273;-75
2021/05/16 08:10:37;;;;;;;7.33;1.80;;;15.20;1.00;;;;;;4994471;28;20492;-75
2021/05/16 08:13:13;;;;;;;3.00;1.80;;;15.30;1.00;;;;;;4994238;28;20412;-75
2021/05/16 08:15:39;;;;;;;3.13;1.70;;;15.20;1.00;;;;;;4988310;28;20502;-76
2021/05/16 08:18:18;;;;;;;5.10;1.90;;;15.30;1.00;;;;;;4981703;28;20430;-75
2021/05/16 08:21:01;;;;;;;13.23;2.60;;;15.40;1.00;;;;;;4974697;28;20433;-75
2021/05/16 08:23:31;;;;;;;7.57;2.07;;;15.60;1.00;;;;;;4974805;28;20422;-75
2021/05/16 08:25:56;;;;;;;6.87;2.43;;;15.80;1.00;;;;;;4981776;28;20437;-76
2021/05/16 08:28:25;;;;;;;3.83;1.87;;;15.70;1.00;;;;;;4993595;28;20416;-75
2021/05/16 08:30:55;;;;;;;1.57;1.47;;;;;;;;;;4994565;28;20673;-75
2021/05/16 08:33:21;;;;;;;3.63;2.00;;;;;;;;;;4994739;28;20397;-75
2021/05/16 08:35:49;;;;;;;5.13;1.50;;;15.40;1.00;;;;;;4993878;28;20400;-76
2021/05/16 08:38:19;;;;;;;5.40;1.83;;;15.10;1.00;;;;;;4993700;28;20413;-75
2021/05/16 08:40:48;;;;;;;7.20;1.50;;;15.20;1.00;;;;;;4993350;28;20462;-73
2021/05/16 08:43:15;;;;;;;5.50;1.67;;;15.10;1.00;;;;;;4996137;28;20511;-75
2021/05/16 08:45:42;;;;;;;4.93;1.30;;;15.20;1.00;;;;;;4998119;28;20375;-74
2021/05/16 08:48:09;;;;;;;2.33;1.50;;;15.40;1.00;;;;;;4997901;28;20535;-75
2021/05/16 08:50:35;;;;;;;2.80;1.40;;;15.50;1.00;;;;;;4997626;28;20459;-74
2021/05/16 08:53:01;;;;;;;4.97;1.27;;;15.50;1.00;;;;;;4997649;28;20427;-74
2021/05/16 08:55:32;;;;;;;3.33;1.53;;;15.70;1.00;;;;;;4996971;28;20417;-74
2021/05/16 08:58:01;;;;;;;1.47;1.00;;;;;;;;;;4997173;28;20605;-74
2021/05/16 09:00:43;;;;;;;7.57;1.70;;;15.90;1.00;;;;;;4997341;28;20881;-74
2021/05/16 09:03:17;;;;;;;3.43;1.40;;;16.00;1.00;;;;;;4986549;28;20425;-74
2021/05/16 09:06:01;;;;;;;2.90;1.20;;;16.20;1.00;;;;;;4997134;28;20401;-74
2021/05/16 09:08:27;;;;;;;4.30;1.40;;;;;;;;;;4996545;28;20424;-74
2021/05/16 09:10:58;;;;;;;7.00;1.07;;;16.60;1.00;;;;;;4996783;28;20435;-75
2021/05/16 09:13:26;;;;;;;8.53;1.60;;;;;;;;;;4996985;28;20498;-75
2021/05/16 09:16:18;;;;;;;4.13;1.10;;;16.80;1.00;;;;;;4991070;28;20453;-77
2021/05/16 09:18:52;;;;;;;5.67;1.40;;;16.30;1.00;;;;;;4986412;28;20439;-79
2021/05/16 09:21:30;;;;;;;6.97;1.50;;;16.10;1.00;;;;;;4994500;28;20407;-79
2021/05/16 09:24:14;;;;;;;4.97;1.40;;;15.90;1.00;;;;;;4996484;28;20483;-80
2021/05/16 09:26:53;;;;;;;3.70;1.57;;;15.70;1.00;;;;;;4996367;28;20839;-75
2021/05/16 09:29:41;;;;;;;3.90;1.30;;;15.70;1.00;;;;;;4995196;28;20490;-76
2021/05/16 09:32:26;;;;;;;3.23;1.10;;;15.60;1.00;;;;;;4996547;28;20413;-77
2021/05/16 09:35:07;;;;;;;4.77;1.00;;;15.70;1.00;;;;;;4996715;28;20388;-76
2021/05/16 09:37:53;;;;;;;4.37;1.20;;;15.90;1.00;;;;;;4996383;28;20422;-77
2021/05/16 09:40:37;;;;;;;4.43;1.30;;;16.10;1.00;;;;;;5011791;28;20768;-77
2021/05/16 09:43:16;;;;;;;3.37;1.60;;;16.00;1.00;;;;;;4996396;28;20752;-77
2021/05/16 09:45:50;;;;;;;7.77;1.20;;;16.10;1.00;;;;;;4996640;28;20417;-77
2021/05/16 09:48:38;;;;;;;3.70;1.40;;;16.00;1.00;;;;;;4996639;28;20371;-78
2021/05/16 09:51:15;;;;;;;2.80;1.00;;;15.80;1.00;;;;;;4996762;28;20437;-77
2021/05/16 09:54:06;;;;;;;1.80;0.93;;;15.50;1.00;;;;;;4996023;28;20814;-77
2021/05/16 09:56:39;;;;;;;13.93;2.37;;;15.40;1.00;;;;;;4996091;28;20412;-77
2021/05/16 09:59:09;;;;;;;2.60;1.30;;;15.50;1.00;;;;;;4995998;28;20424;-77
2021/05/16 10:01:49;;;;;;;4.00;1.50;;;;;;;;;;4996386;28;20448;-77
2021/05/16 10:04:19;;;;;;;3.40;1.20;;;;;;;;;;4995833;28;20464;-77
2021/05/16 10:06:49;;;;;;;14.13;1.20;;;;;;;;;;4995983;28;20930;-78
2021/05/16 10:09:19;;;;;;;3.83;1.13;;;;;;;;;;4995584;28;20786;-76
2021/05/16 10:11:49;;;;;;;2.87;1.40;;;17.20;1.00;;;;;;4995622;28;20727;-77
2021/05/16 10:14:28;;;;;;;6.40;1.53;;;17.20;1.00;;;;;;4988316;28;20427;-78
2021/05/16 10:16:54;;;;;;;2.97;0.87;;;;;;;;;;4986690;28;20460;-77
2021/05/16 10:19:23;;;;;;;15.00;2.00;;;17.00;1.00;;;;;;4982425;28;20430;-82
2021/05/16 10:22:15;;;;;;;4.03;0.93;;;17.20;1.00;;;;;;4981034;28;20419;-77
2021/05/16 10:24:44;;;;;;;13.63;1.97;;;;;;;;;;4976234;28;20786;-75
2021/05/16 10:27:24;;;;;;;1.70;1.20;;;17.90;1.00;;;;;;4976097;28;20374;-76
2021/05/16 10:29:55;;;;;;;2.07;1.00;;;18.00;1.00;;;;;;4976389;28;20394;-76
2021/05/16 10:32:32;;;;;;;5.80;1.27;;;18.40;1.00;;;;;;4976740;28;20389;-74
2021/05/16 10:35:00;;;;;;;1.87;1.00;;;18.50;1.00;;;;;;4976089;28;20486;-74
2021/05/16 10:37:51;;;;;;;19.50;1.80;;;18.80;1.00;;;;;;4975985;28;20796;-74
2021/05/16 10:40:24;;;;;;;5.43;1.10;;;18.70;1.00;;;;;;4975661;28;21116;-74
2021/05/16 10:42:57;;;;;;;6.20;1.00;;;18.90;1.00;;;;;;4974440;28;20430;-74
2021/05/16 10:45:27;;;;;;;6.77;1.20;;;18.80;1.00;;;;;;4975805;28;20494;-74
2021/05/16 10:47:55;;;;;;;5.17;1.20;;;18.70;1.00;;;;;;4978645;28;20476;-76
2021/05/16 10:50:24;;;;;;;14.50;1.87;;;;;;;;;;4984514;28;20448;-76
2021/05/16 10:53:11;;;;;;;3.03;1.00;;;18.80;1.00;;;;;;4978051;28;20444;-74
2021/05/16 10:56:05;;;;;;;2.30;0.80;;;18.80;1.00;;;;;;4983930;28;20402;-74
2021/05/16 10:58:41;;;;;;;8.60;1.40;;;18.60;1.00;;;;;;4988859;28;20895;-74
2021/05/16 11:01:10;;;;;;;10.23;1.13;;;18.50;1.00;;;;;;4991178;28;20474;-76
2021/05/16 11:03:56;;;;;;;15.23;1.83;;;18.50;1.00;;;;;;4976144;28;20408;-75
2021/05/16 11:06:42;;;;;;;3.30;0.73;;;18.40;1.00;;;;;;5010143;28;20418;-75
2021/05/16 11:09:13;;;;;;;5.20;1.37;;;18.30;1.00;;;;;;4987522;28;20534;-75
2021/05/16 11:11:49;;;;;;;6.83;1.57;;;18.20;1.00;;;;;;4983917;28;20850;-76
2021/05/16 11:14:15;;;;;;;12.07;1.10;;;18.00;1.00;;;;;;4989120;28;20414;-75
2021/05/16 11:16:52;;;;;;;6.63;1.40;;;18.10;1.00;;;;;;4995419;28;20402;-75
2021/05/16 11:19:26;;;;;;;5.33;1.30;;;18.20;1.00;;;;;;4975559;28;20167;-75
2021/05/16 11:21:56;;;;;;;1.90;0.97;;;18.40;1.00;;;;;;4973598;28;20436;-75
2021/05/16 11:24:39;;;;;;;3.50;1.07;;;18.50;1.00;;;;;;4978208;28;20405;-76
2021/05/16 11:27:25;;;;;;;2.90;1.10;;;18.70;1.00;;;;;;4983369;28;20508;-75
2021/05/16 11:30:13;;;;;;;1.87;0.90;;;18.90;1.00;;;;;;4989772;28;20429;-76
2021/05/16 11:32:39;;;;;;;5.33;0.90;;;19.30;1.00;;;;;;4994975;28;20427;-78
2021/05/16 11:35:16;;;;;;;2.50;1.00;;;19.20;1.00;;;;;;4994821;28;20385;-76
2021/05/16 11:37:45;;;;;;;8.67;1.27;;;19.30;1.00;;;;;;4993210;28;20249;-76
2021/05/16 11:40:22;;;;;;;2.90;0.90;;;19.60;1.00;;;;;;4994544;28;20450;-76
2021/05/16 11:43:05;;;;;;;4.83;0.97;;;19.60;1.00;;;;;;4993177;28;20484;-76
2021/05/16 11:45:41;;;;;;;3.17;1.10;;;;;;;;;;4995037;28;20420;-76
2021/05/16 11:48:31;;;;;;;5.03;1.00;;;19.60;1.00;;;;;;4994614;28;20907;-74
2021/05/16 11:51:04;;;;;;;4.37;0.97;;;19.60;1.00;;;;;;4994108;28;20432;-75
2021/05/16 11:53:48;;;;;;;3.40;0.90;;;;;;;;;;4989555;28;20434;-75
2021/05/16 11:56:27;;;;;;;2.50;1.00;;;19.50;1.00;;;;;;4994388;28;20371;-75
2021/05/16 11:59:03;;;;;;;3.80;0.97;;;19.60;1.00;;;;;;4987739;28;20522;-75
2021/05/16 12:01:33;;;;;;;4.30;1.03;;;19.80;1.00;;;;;;4990995;28;20455;-75
2021/05/16 12:04:04;;;;;;;2.83;1.07;;;19.80;1.00;;;;;;4990518;28;20421;-76
2021/05/16 12:06:40;;;;;;;9.00;1.43;;;19.70;1.00;;;;;;4993969;28;20402;-75
2021/05/16 12:09:14;;;;;;;7.37;1.60;;;19.90;1.00;;;;;;4983685;28;20408;-74
2021/05/16 12:11:51;;;;;;;4.30;0.80;;;20.00;1.00;;;;;;4994217;28;20433;-77
2021/05/16 12:14:20;;;;;;;2.00;0.70;;;20.00;1.00;;;;;;4994583;28;20427;-76
2021/05/16 12:17:06;;;;;;;3.37;1.00;;;19.80;1.00;;;;;;4996151;28;20407;-76
2021/05/16 12:19:35;;;;;;;7.07;1.03;;;19.80;1.00;;;;;;4998021;28;20924;-76
2021/05/16 12:22:06;;;;;;;8.53;1.17;;;19.80;1.00;;;;;;4996738;28;20420;-75
2021/05/16 12:24:34;;;;;;;6.80;1.17;;;19.60;1.00;;;;;;4998188;28;20426;-76
2021/05/16 12:27:00;;;;;;;9.80;1.37;;;19.70;1.00;;;;;;4997688;28;20401;-75
2021/05/16 12:29:32;;;;;;;2.50;0.77;;;19.80;1.00;;;;;;4998172;28;20735;-76
2021/05/16 12:31:57;;;;;;;2.40;0.83;;;19.80;1.00;;;;;;4998043;28;20427;-75
2021/05/16 12:34:25;;;;;;;6.00;1.30;;;19.80;1.00;;;;;;4997739;28;20424;-76
2021/05/16 12:37:00;;;;;;;4.03;1.67;;;19.80;1.00;;;;;;4997784;28;20402;-76
2021/05/16 12:39:50;;;;;;;6.93;1.07;;;19.70;1.00;;;;;;4997472;28;20813;-77
2021/05/16 12:43:00;;;;;;;3.30;1.03;;;19.80;1.00;;;;;;4986835;28;20451;-77
2021/05/16 12:45:39;;;;;;;5.63;1.23;;;19.60;1.00;;;;;;4993129;28;20423;-76
2021/05/16 12:48:19;;;;;;;2.87;1.10;;;19.40;1.00;;;;;;4978531;28;20407;-77
2021/05/16 12:50:58;;;;;;;4.63;1.10;;;19.30;1.00;;;;;;4991147;28;20421;-76
2021/05/16 12:53:48;;;;;;;7.80;1.30;;;18.90;1.00;;;;;;4997737;28;20370;-77
2021/05/16 12:56:25;;;;;;;5.87;1.00;;;18.80;1.00;;;;;;4997787;28;20490;-76
2021/05/16 13:01:32;;;;;;;10.03;1.23;;;17.90;1.00;;;;;;4997621;28;20445;-76
2021/05/16 13:04:11;;;;;;;4.80;1.30;;;17.40;1.00;;;;;;4997346;28;20389;-76
2021/05/16 13:06:39;;;;;;;11.30;2.00;;;17.00;1.00;;;;;;5010988;28;20800;-75
2021/05/16 13:09:06;;;;;;;4.67;1.00;;;16.50;1.00;;;;;;4985492;28;20452;-76
2021/05/16 13:11:51;;;;;;;4.20;1.10;;;16.20;1.00;;;;;;4977515;28;20440;-75
2021/05/16 13:14:40;;;;;;;4.27;1.00;;;16.00;1.00;;;;;;4988241;28;20430;-76
2021/05/16 13:17:15;;;;;;;5.40;1.10;;;16.00;1.00;;;;;;4988981;28;20495;-76
2021/05/16 13:19:54;;;;;;;5.90;1.20;;;16.10;1.00;;;;;;4991198;28;20472;-76
2021/05/16 13:22:42;;;;;;;11.17;1.33;;;15.90;1.00;;;;;;4992462;28;20993;-77
2021/05/16 13:25:10;;;;;;;6.43;1.50;;;16.10;1.00;;;;;;4992606;28;20425;-77
2021/05/16 13:27:38;;;;;;;4.93;1.10;;;16.00;1.00;;;;;;4995406;28;20389;-77
2021/05/16 13:30:08;;;;;;;7.07;1.00;;;15.70;1.00;;;;;;4995999;28;20397;-77
2021/05/16 13:32:34;;;;;;;1.43;0.97;;;;;;;;;;4996275;28;20417;-76
2021/05/16 13:35:00;;;;;;;7.97;1.50;;;;;;;;;;4995926;28;20977;-76
2021/05/16 13:37:26;;;;;;;6.27;1.53;;;;;;;;;;5010554;28;20499;-76
2021/05/16 13:39:52;;;;;;;4.27;1.30;;;;;;;;;;4995311;28;20607;-76
2021/05/16 13:42:18;;;;;;;5.50;1.80;;;;;;;;;;4993309;28;20440;-76
2021/05/16 13:44:44;;;;;;;3.27;1.27;;;;;;;;;;4995462;28;20415;-76
2021/05/16 13:47:10;;;;;;;5.53;1.30;;;;;;;;;;4995306;28;20392;-76
2021/05/16 13:49:37;;;;;;;8.07;1.57;;;;;;;;;;4995219;28;20867;-75
2021/05/16 13:52:03;;;;;;;1.90;1.03;;;;;;;;;;4980163;28;20409;-75